createdAt,value
2022-11-29T00:00:16.940Z,9.09
2022-11-29T00:02:20.136Z,9.09
2022-11-29T00:04:24.716Z,9.09
2022-11-29T00:06:30.046Z,9.09
2022-11-29T00:08:33.016Z,9.06
2022-11-29T00:10:37.794Z,9.04
2022-11-29T00:12:40.794Z,9.05
2022-11-29T00:14:44.325Z,9.05
2022-11-29T00:16:51.810Z,9.05
2022-11-29T00:18:54.895Z,9.07
2022-11-29T00:20:59.451Z,9.06
2022-11-29T00:23:02.728Z,9.05
2022-11-29T00:25:07.199Z,9.02
2022-11-29T00:27:10.334Z,9.02
2022-11-29T00:29:13.841Z,9.01
2022-11-29T00:31:18.596Z,9.02
2022-11-29T00:33:21.651Z,9.02
2022-11-29T00:35:24.794Z,9.04
2022-11-29T00:37:29.204Z,9.03
2022-11-29T00:39:33.046Z,9.03
2022-11-29T00:41:36.056Z,9.03
2022-11-29T00:43:39.309Z,9.03
2022-11-29T00:45:42.483Z,9.04
2022-11-29T00:47:45.455Z,9.05
2022-11-29T00:49:48.569Z,9.04
2022-11-29T00:51:51.683Z,9.04
2022-11-29T00:53:58.792Z,9.05
2022-11-29T00:56:02.190Z,9.04
2022-11-29T00:58:05.225Z,9.02
2022-11-29T01:00:09.542Z,9.02
2022-11-29T01:02:12.524Z,9.03
2022-11-29T01:04:15.582Z,9.05
2022-11-29T01:06:19.400Z,9.06
2022-11-29T01:08:22.365Z,9.06
2022-11-29T01:10:26.927Z,9.07
2022-11-29T01:12:29.973Z,9.06
2022-11-29T01:14:32.921Z,9.04
2022-11-29T01:16:36.010Z,9.01
2022-11-29T01:18:39.444Z,9.02
2022-11-29T01:20:42.383Z,9.01
2022-11-29T01:22:45.369Z,9.03
2022-11-29T01:24:48.695Z,9.04
2022-11-29T01:26:53.072Z,9.05
2022-11-29T01:28:57.483Z,9.04
2022-11-29T01:31:00.610Z,9.04
2022-11-29T01:33:03.860Z,9.05
2022-11-29T01:35:07.767Z,9.05
2022-11-29T01:37:10.735Z,9.04
2022-11-29T01:39:13.890Z,9.06
2022-11-29T01:41:19.179Z,9.06
2022-11-29T01:43:23.703Z,9.07
2022-11-29T01:45:27.778Z,9.07
2022-11-29T01:47:30.994Z,9.08
2022-11-29T01:49:36.421Z,9.08
2022-11-29T01:51:41.868Z,9.08
2022-11-29T01:53:44.813Z,9.08
2022-11-29T01:55:50.627Z,9.10
2022-11-29T01:57:53.986Z,9.11
2022-11-29T02:00:02.222Z,9.11
2022-11-29T02:02:17.503Z,9.10
2022-11-29T02:04:20.578Z,9.09
2022-11-29T02:06:24.131Z,9.08
2022-11-29T02:08:31.252Z,9.09
2022-11-29T02:10:45.817Z,9.08
2022-11-29T02:12:58.776Z,9.10
2022-11-29T02:15:11.330Z,9.09
2022-11-29T02:17:20.899Z,9.10
2022-11-29T02:19:40.384Z,9.12
2022-11-29T02:21:45.565Z,9.10
2022-11-29T02:24:15.730Z,9.12
2022-11-29T02:26:26.675Z,9.11
2022-11-29T02:28:58.216Z,9.08
2022-11-29T02:31:36.107Z,9.06
2022-11-29T02:34:09.682Z,9.05
2022-11-29T02:36:21.509Z,9.04
2022-11-29T02:38:36.819Z,9.04
2022-11-29T02:40:58.224Z,9.05
2022-11-29T02:43:19.504Z,9.05
2022-11-29T02:45:41.395Z,9.03
2022-11-29T02:47:54.994Z,9.04
2022-11-29T02:50:20.653Z,9.02
2022-11-29T02:52:31.421Z,9.00
2022-11-29T02:54:37.873Z,9.00
2022-11-29T02:56:45.516Z,9.00
2022-11-29T02:58:52.067Z,9.00
2022-11-29T03:01:01.708Z,8.99
2022-11-29T03:03:09.773Z,8.99
2022-11-29T03:05:21.578Z,9.01
2022-11-29T03:07:28.238Z,9.02
2022-11-29T03:09:38.469Z,9.03
2022-11-29T03:11:46.826Z,9.04
2022-11-29T03:13:57.506Z,9.04
2022-11-29T03:16:04.514Z,9.06
2022-11-29T03:18:22.359Z,9.09
2022-11-29T03:20:35.406Z,9.10
2022-11-29T03:22:44.399Z,9.09
2022-11-29T03:24:52.399Z,9.09
2022-11-29T03:27:01.110Z,9.11
2022-11-29T03:29:08.661Z,9.11
2022-11-29T03:31:17.070Z,9.11
2022-11-29T03:33:26.388Z,9.12
2022-11-29T03:35:34.815Z,9.12
2022-11-29T03:37:45.243Z,9.13
2022-11-29T03:39:53.283Z,9.13
2022-11-29T03:41:59.888Z,9.14
2022-11-29T03:44:08.261Z,9.13
2022-11-29T03:46:15.815Z,9.14
2022-11-29T03:48:24.823Z,9.14
2022-11-29T03:50:33.791Z,9.16
2022-11-29T03:52:40.080Z,9.16
2022-11-29T03:54:48.127Z,9.17
2022-11-29T03:56:51.694Z,9.17
2022-11-29T03:58:58.739Z,9.16
2022-11-29T04:01:19.683Z,9.16
2022-11-29T04:03:49.744Z,9.18
2022-11-29T04:06:21.677Z,9.17
2022-11-29T04:09:15.781Z,9.17
2022-11-29T04:11:55.682Z,9.16
2022-11-29T04:14:22.882Z,9.17
2022-11-29T04:16:49.678Z,9.17
2022-11-29T04:19:19.643Z,9.17
2022-11-29T04:21:36.542Z,9.17
2022-11-29T04:24:10.709Z,9.18
2022-11-29T04:26:35.919Z,9.18
2022-11-29T04:28:57.442Z,9.18
2022-11-29T04:31:04.930Z,9.19
2022-11-29T04:33:53.529Z,9.21
2022-11-29T04:36:23.364Z,9.21
2022-11-29T04:38:33.692Z,9.20
2022-11-29T04:40:50.543Z,9.21
2022-11-29T04:43:07.429Z,9.22
2022-11-29T04:45:37.458Z,9.23
2022-11-29T04:47:51.326Z,9.23
2022-11-29T04:50:10.947Z,9.23
2022-11-29T04:52:37.988Z,9.24
2022-11-29T04:54:47.520Z,9.24
2022-11-29T04:56:52.464Z,9.24
2022-11-29T04:59:00.566Z,9.24
2022-11-29T05:01:08.239Z,9.23
2022-11-29T05:03:15.843Z,9.22
2022-11-29T05:05:28.424Z,9.21
2022-11-29T05:07:36.092Z,9.21
2022-11-29T05:09:48.444Z,9.21
2022-11-29T05:11:59.427Z,9.22
2022-11-29T05:14:08.865Z,9.22
2022-11-29T05:16:21.693Z,9.22
2022-11-29T05:18:38.731Z,9.24
2022-11-29T05:20:47.360Z,9.24
2022-11-29T05:22:59.540Z,9.25
2022-11-29T05:25:17.781Z,9.26
2022-11-29T05:27:28.363Z,9.26
2022-11-29T05:29:35.624Z,9.27
2022-11-29T05:31:51.830Z,9.28
2022-11-29T05:34:07.212Z,9.27
2022-11-29T05:36:16.056Z,9.29
2022-11-29T05:38:35.325Z,9.30
2022-11-29T05:40:46.216Z,9.30
2022-11-29T05:43:05.387Z,9.29
2022-11-29T05:45:13.625Z,9.28
2022-11-29T05:47:20.012Z,9.29
2022-11-29T05:49:30.827Z,9.30
2022-11-29T05:51:41.356Z,9.30
2022-11-29T05:53:50.368Z,9.29
2022-11-29T05:56:00.487Z,9.27
2022-11-29T05:58:05.758Z,9.27
2022-11-29T06:00:12.195Z,9.25
2022-11-29T06:02:24.284Z,9.23
2022-11-29T06:04:33.225Z,9.23
2022-11-29T06:06:40.735Z,9.23
2022-11-29T06:08:47.072Z,9.26
2022-11-29T06:11:00.689Z,9.28
2022-11-29T06:13:12.771Z,9.31
2022-11-29T06:15:46.299Z,9.35
2022-11-29T06:18:01.637Z,9.35
2022-11-29T06:20:14.317Z,9.37
2022-11-29T06:22:40.067Z,9.38
2022-11-29T06:24:51.825Z,9.39
2022-11-29T06:27:20.314Z,9.40
2022-11-29T06:29:29.182Z,9.40
2022-11-29T06:31:38.066Z,9.39
2022-11-29T06:33:46.999Z,9.41
2022-11-29T06:35:53.861Z,9.42
2022-11-29T06:37:59.119Z,9.42
2022-11-29T06:40:02.573Z,9.43
2022-11-29T06:42:07.061Z,9.44
2022-11-29T06:44:11.643Z,9.45
2022-11-29T06:46:23.794Z,9.46
2022-11-29T06:48:28.578Z,9.47
2022-11-29T06:50:38.220Z,9.47
2022-11-29T06:52:47.939Z,9.48
2022-11-29T06:55:02.740Z,9.50
2022-11-29T06:57:13.142Z,9.51
2022-11-29T06:59:30.996Z,9.52
2022-11-29T07:01:39.827Z,9.52
2022-11-29T07:04:01.650Z,9.53
2022-11-29T07:06:10.055Z,9.53
2022-11-29T07:08:16.408Z,9.52
2022-11-29T07:10:20.691Z,9.53
2022-11-29T07:12:26.051Z,9.53
2022-11-29T07:14:29.670Z,9.53
2022-11-29T07:16:35.238Z,9.52
2022-11-29T07:18:44.596Z,9.52
2022-11-29T07:20:55.709Z,9.53
2022-11-29T07:23:04.539Z,9.53
2022-11-29T07:25:18.147Z,9.50
2022-11-29T07:27:24.188Z,9.49
2022-11-29T07:29:35.615Z,9.50
2022-11-29T07:31:46.985Z,9.52
2022-11-29T07:33:55.693Z,9.53
2022-11-29T07:36:04.532Z,9.57
2022-11-29T07:38:11.282Z,9.57
2022-11-29T07:40:16.801Z,9.58
2022-11-29T07:42:26.703Z,9.59
2022-11-29T07:44:36.936Z,9.61
2022-11-29T07:46:39.998Z,9.63
2022-11-29T07:48:43.027Z,9.64
2022-11-29T07:50:46.311Z,9.66
2022-11-29T07:52:49.834Z,9.68
2022-11-29T07:54:52.912Z,9.69
2022-11-29T07:56:55.987Z,9.69
2022-11-29T07:58:59.084Z,9.70
2022-11-29T08:01:03.527Z,9.73
2022-11-29T08:03:07.245Z,9.75
2022-11-29T08:05:11.135Z,9.76
2022-11-29T08:07:14.158Z,9.78
2022-11-29T08:09:17.261Z,9.80
2022-11-29T08:11:20.334Z,9.82
2022-11-29T08:13:23.429Z,9.83
2022-11-29T08:15:27.437Z,9.85
2022-11-29T08:17:32.042Z,9.85
2022-11-29T08:19:35.226Z,9.87
2022-11-29T08:21:38.330Z,9.89
2022-11-29T08:23:41.355Z,9.92
2022-11-29T08:25:45.870Z,9.95
2022-11-29T08:27:48.872Z,9.96
2022-11-29T08:29:51.835Z,9.98
2022-11-29T08:31:55.418Z,9.99
2022-11-29T08:33:59.869Z,10.02
2022-11-29T08:36:06.234Z,10.00
2022-11-29T08:38:09.231Z,9.99
2022-11-29T08:40:13.604Z,9.98
2022-11-29T08:42:16.596Z,9.99
2022-11-29T08:44:19.605Z,9.98
2022-11-29T08:46:22.789Z,9.94
2022-11-29T08:48:26.405Z,9.95
2022-11-29T08:50:30.804Z,9.95
2022-11-29T08:52:52.728Z,9.96
2022-11-29T08:55:00.328Z,10.00
2022-11-29T08:57:37.947Z,10.05
2022-11-29T08:59:29.133Z,10.12
2022-11-29T09:01:32.299Z,10.15
2022-11-29T09:03:53.005Z,10.19
2022-11-29T09:05:57.513Z,10.24
2022-11-29T09:08:00.694Z,10.30
2022-11-29T09:10:08.120Z,10.35
2022-11-29T09:12:11.410Z,10.40
2022-11-29T09:14:16.662Z,10.44
2022-11-29T09:16:22.554Z,10.47
2022-11-29T09:18:28.366Z,10.50
2022-11-29T09:20:31.366Z,10.55
2022-11-29T09:22:35.834Z,10.58
2022-11-29T09:24:38.943Z,10.58
2022-11-29T09:26:42.382Z,10.61
2022-11-29T09:28:45.652Z,10.65
2022-11-29T09:30:50.475Z,10.68
2022-11-29T09:32:53.663Z,10.71
2022-11-29T09:34:56.644Z,10.72
2022-11-29T09:36:59.796Z,10.73
2022-11-29T09:39:04.433Z,10.72
2022-11-29T09:41:20.744Z,10.73
2022-11-29T09:43:28.413Z,10.75
2022-11-29T09:45:34.731Z,10.75
2022-11-29T09:47:58.860Z,10.75
2022-11-29T09:50:13.578Z,10.76
2022-11-29T09:52:24.827Z,10.73
2022-11-29T09:54:37.200Z,10.74
2022-11-29T09:56:42.490Z,10.73
2022-11-29T09:58:49.805Z,10.69
2022-11-29T10:00:56.356Z,10.68
2022-11-29T10:03:03.576Z,10.69
2022-11-29T10:05:12.351Z,10.70
2022-11-29T10:07:20.716Z,10.70
2022-11-29T10:09:30.842Z,10.67
2022-11-29T10:11:42.221Z,10.66
2022-11-29T10:13:49.301Z,10.66
2022-11-29T10:15:55.053Z,10.66
2022-11-29T10:18:02.813Z,10.64
2022-11-29T10:20:12.540Z,10.61
2022-11-29T10:22:21.174Z,10.58
2022-11-29T10:24:24.605Z,10.57
2022-11-29T10:26:33.536Z,10.55
2022-11-29T10:28:39.548Z,10.52
2022-11-29T10:30:43.330Z,10.50
2022-11-29T10:32:48.869Z,10.49
2022-11-29T10:34:52.754Z,10.50
2022-11-29T10:36:59.392Z,10.48
2022-11-29T10:39:08.804Z,10.46
2022-11-29T10:41:20.231Z,10.45
2022-11-29T10:43:23.343Z,10.47
2022-11-29T10:45:30.719Z,10.50
2022-11-29T10:47:34.148Z,10.55
2022-11-29T10:49:37.794Z,10.56
2022-11-29T10:51:40.922Z,10.54
2022-11-29T10:53:43.992Z,10.54
2022-11-29T10:55:49.523Z,10.53
2022-11-29T10:58:14.651Z,10.53
2022-11-29T11:00:18.582Z,10.54
2022-11-29T11:02:24.515Z,10.54
2022-11-29T11:04:30.638Z,10.55
2022-11-29T11:06:44.143Z,10.55
2022-11-29T11:08:49.803Z,10.53
2022-11-29T11:10:56.417Z,10.54
2022-11-29T11:13:04.472Z,10.55
2022-11-29T11:15:28.591Z,10.58
2022-11-29T11:17:33.832Z,10.60
2022-11-29T11:19:37.795Z,10.57
2022-11-29T11:21:40.825Z,10.58
2022-11-29T11:23:47.717Z,10.59
2022-11-29T11:25:58.106Z,10.58
2022-11-29T11:28:15.328Z,10.61
2022-11-29T11:30:21.644Z,10.64
2022-11-29T11:32:24.708Z,10.62
2022-11-29T11:34:35.167Z,10.58
2022-11-29T11:36:38.170Z,10.58
2022-11-29T11:38:43.055Z,10.61
2022-11-29T11:40:46.641Z,10.63
2022-11-29T11:42:50.643Z,10.65
2022-11-29T11:44:53.768Z,10.69
2022-11-29T11:46:57.166Z,10.72
2022-11-29T11:49:00.195Z,10.70
2022-11-29T11:51:04.838Z,10.65
2022-11-29T11:53:09.148Z,10.65
2022-11-29T11:55:29.021Z,10.64
2022-11-29T11:57:32.546Z,10.64
2022-11-29T11:59:35.717Z,10.63
2022-11-29T12:01:40.383Z,10.58
2022-11-29T12:03:49.675Z,10.58
2022-11-29T12:05:54.337Z,10.61
2022-11-29T12:08:08.899Z,10.62
2022-11-29T12:10:18.171Z,10.64
2022-11-29T12:12:24.483Z,10.64
2022-11-29T12:14:35.587Z,10.60
2022-11-29T12:16:42.679Z,10.60
2022-11-29T12:18:49.803Z,10.57
2022-11-29T12:20:56.852Z,10.58
2022-11-29T12:23:19.906Z,10.57
2022-11-29T12:25:26.331Z,10.53
2022-11-29T12:27:29.457Z,10.47
2022-11-29T12:29:34.520Z,10.47
2022-11-29T12:31:46.333Z,10.50
2022-11-29T12:33:54.199Z,10.51
2022-11-29T12:36:10.832Z,10.51
2022-11-29T12:38:32.067Z,10.51
2022-11-29T12:40:41.871Z,10.54
2022-11-29T12:42:51.823Z,10.53
2022-11-29T12:45:01.136Z,10.47
2022-11-29T12:49:40.781Z,10.38
2022-11-29T12:51:49.376Z,10.39
2022-11-29T12:54:05.652Z,10.37
2022-11-29T12:56:16.053Z,10.36
2022-11-29T12:58:27.511Z,10.35
2022-11-29T13:00:35.838Z,10.36
2022-11-29T13:02:49.507Z,10.33
2022-11-29T13:05:00.052Z,10.34
2022-11-29T13:07:07.215Z,10.36
2022-11-29T13:09:22.762Z,10.37
2022-11-29T13:11:28.704Z,10.34
2022-11-29T13:13:39.302Z,10.36
2022-11-29T13:15:45.143Z,10.36
2022-11-29T13:17:54.157Z,10.36
2022-11-29T13:19:58.051Z,10.38
2022-11-29T13:22:08.179Z,10.40
2022-11-29T13:24:15.750Z,10.41
2022-11-29T13:26:19.632Z,10.36
2022-11-29T13:28:25.428Z,10.33
2022-11-29T13:30:28.943Z,10.31
2022-11-29T13:32:36.239Z,10.32
2022-11-29T13:34:43.197Z,10.34
2022-11-29T13:36:58.439Z,10.34
2022-11-29T13:39:09.713Z,10.35
2022-11-29T13:41:22.940Z,10.35
2022-11-29T13:43:30.947Z,10.35
2022-11-29T13:45:38.569Z,10.35
2022-11-29T13:47:49.636Z,10.36
2022-11-29T13:49:55.335Z,10.35
2022-11-29T13:52:06.272Z,10.34
2022-11-29T13:54:30.348Z,10.32
2022-11-29T13:56:43.167Z,10.33
2022-11-29T13:58:46.485Z,10.33
2022-11-29T14:00:51.578Z,10.32
2022-11-29T14:02:56.131Z,10.34
2022-11-29T14:04:59.503Z,10.31
2022-11-29T14:07:05.190Z,10.32
2022-11-29T14:09:28.732Z,10.32
2022-11-29T14:11:37.620Z,10.30
2022-11-29T14:13:53.245Z,10.25
2022-11-29T14:15:59.140Z,10.24
2022-11-29T14:18:03.566Z,10.25
2022-11-29T14:20:49.450Z,10.19
2022-11-29T14:23:17.892Z,10.20
2022-11-29T14:25:50.401Z,10.18
2022-11-29T14:28:00.305Z,10.17
2022-11-29T14:30:03.515Z,10.16
2022-11-29T14:32:22.668Z,10.16
2022-11-29T14:34:39.872Z,10.17
2022-11-29T14:36:50.145Z,10.17
2022-11-29T14:38:59.948Z,10.18
2022-11-29T14:41:06.917Z,10.15
2022-11-29T14:43:18.098Z,10.15
2022-11-29T14:45:26.812Z,10.16
2022-11-29T14:47:31.868Z,10.17
2022-11-29T14:49:41.107Z,10.16
2022-11-29T14:52:08.223Z,10.13
2022-11-29T14:54:17.974Z,10.11
2022-11-29T14:56:39.055Z,10.08
2022-11-29T14:58:44.096Z,10.09
2022-11-29T15:01:09.862Z,10.05
2022-11-29T15:03:18.563Z,10.04
2022-11-29T15:05:28.007Z,10.05
2022-11-29T15:07:33.104Z,10.03
2022-11-29T15:09:37.779Z,10.00
2022-11-29T15:11:52.642Z,9.97
2022-11-29T15:14:04.036Z,9.97
2022-11-29T15:16:23.243Z,9.98
2022-11-29T15:18:43.325Z,9.98
2022-11-29T15:20:57.696Z,9.95
2022-11-29T15:23:02.820Z,9.93
2022-11-29T15:25:12.974Z,9.92
2022-11-29T15:27:18.116Z,9.93
2022-11-29T15:29:22.617Z,9.92
2022-11-29T15:31:25.910Z,9.91
2022-11-29T15:33:30.500Z,9.92
2022-11-29T15:35:37.991Z,9.91
2022-11-29T15:37:44.486Z,9.91
2022-11-29T15:39:47.644Z,9.89
2022-11-29T15:41:50.806Z,9.86
2022-11-29T15:43:55.573Z,9.85
2022-11-29T15:46:03.109Z,9.84
2022-11-29T15:48:19.134Z,9.84
2022-11-29T15:50:27.196Z,9.81
2022-11-29T15:52:33.873Z,9.79
2022-11-29T15:54:40.255Z,9.76
2022-11-29T15:56:46.953Z,9.77
2022-11-29T15:58:51.214Z,9.78
2022-11-29T16:00:56.345Z,9.77
2022-11-29T16:03:03.685Z,9.75
2022-11-29T16:05:14.538Z,9.71
2022-11-29T16:07:19.330Z,9.70
2022-11-29T16:09:26.384Z,9.64
2022-11-29T16:11:32.446Z,9.64
2022-11-29T16:13:40.283Z,9.61
2022-11-29T16:15:43.397Z,9.62
2022-11-29T16:17:46.534Z,9.65
2022-11-29T16:19:50.926Z,9.66
2022-11-29T16:22:10.355Z,9.67
2022-11-29T16:24:15.060Z,9.69
2022-11-29T16:26:19.981Z,9.68
2022-11-29T16:28:23.450Z,9.68
2022-11-29T16:30:27.887Z,9.67
2022-11-29T16:32:32.577Z,9.69
2022-11-29T16:34:35.719Z,9.69
2022-11-29T16:36:40.145Z,9.68
2022-11-29T16:38:46.216Z,9.69
2022-11-29T16:41:03.812Z,9.72
2022-11-29T16:43:23.837Z,9.73
2022-11-29T16:45:34.923Z,9.72
2022-11-29T16:47:52.298Z,9.74
2022-11-29T16:50:13.653Z,9.72
2022-11-29T16:52:26.191Z,9.70
2022-11-29T16:54:34.074Z,9.70
2022-11-29T16:56:39.606Z,9.69
2022-11-29T16:59:26.929Z,9.70
2022-11-29T17:01:17.278Z,9.71
2022-11-29T17:03:20.352Z,9.73
2022-11-29T17:05:23.782Z,9.72
2022-11-29T17:07:31.097Z,9.72
2022-11-29T17:09:34.463Z,9.71
2022-11-29T17:11:37.447Z,9.73
2022-11-29T17:13:40.970Z,9.74
2022-11-29T17:15:44.133Z,9.74
2022-11-29T17:17:47.282Z,9.74
2022-11-29T17:19:50.484Z,9.73
2022-11-29T17:21:54.354Z,9.72
2022-11-29T17:23:59.140Z,9.73
2022-11-29T17:26:03.339Z,9.74
2022-11-29T17:28:06.713Z,9.73
2022-11-29T17:30:11.323Z,9.72
2022-11-29T17:32:14.452Z,9.70
2022-11-29T17:34:17.713Z,9.70
2022-11-29T17:36:21.691Z,9.66
2022-11-29T17:38:25.034Z,9.67
2022-11-29T17:40:29.468Z,9.67
2022-11-29T17:42:32.604Z,9.67
2022-11-29T17:44:35.802Z,9.68
2022-11-29T17:46:39.535Z,9.66
2022-11-29T17:48:45.034Z,9.65
2022-11-29T17:50:49.957Z,9.63
2022-11-29T17:52:52.956Z,9.63
2022-11-29T17:54:55.978Z,9.63
2022-11-29T17:57:01.017Z,9.62
2022-11-29T17:59:05.282Z,9.59
2022-11-29T18:01:09.903Z,9.60
2022-11-29T18:03:13.049Z,9.59
2022-11-29T18:05:16.303Z,9.60
2022-11-29T18:07:19.423Z,9.60
2022-11-29T18:09:22.579Z,9.57
2022-11-29T18:11:27.696Z,9.57
2022-11-29T18:13:32.166Z,9.58
2022-11-29T18:15:35.224Z,9.58
2022-11-29T18:17:38.363Z,9.57
2022-11-29T18:19:42.298Z,9.57
2022-11-29T18:21:45.456Z,9.57
2022-11-29T18:23:48.523Z,9.56
2022-11-29T18:25:56.949Z,9.55
2022-11-29T18:27:59.989Z,9.58
2022-11-29T18:30:04.995Z,9.58
2022-11-29T18:32:07.986Z,9.58
2022-11-29T18:34:13.171Z,9.58
2022-11-29T18:36:17.658Z,9.59
2022-11-29T18:38:20.722Z,9.56
2022-11-29T18:40:24.195Z,9.57
2022-11-29T18:42:27.214Z,9.56
2022-11-29T18:44:30.286Z,9.57
2022-11-29T18:46:36.866Z,9.59
2022-11-29T18:48:40.536Z,9.58
2022-11-29T18:50:43.627Z,9.54
2022-11-29T18:52:46.653Z,9.55
2022-11-29T18:54:49.696Z,9.55
2022-11-29T18:56:52.798Z,9.55
2022-11-29T18:58:58.743Z,9.57
2022-11-29T19:01:06.099Z,9.56
2022-11-29T19:03:10.509Z,9.56
2022-11-29T19:05:13.626Z,9.57
2022-11-29T19:07:16.837Z,9.56
2022-11-29T19:09:22.077Z,9.57
2022-11-29T19:11:26.836Z,9.58
2022-11-29T19:13:29.809Z,9.58
2022-11-29T19:15:33.046Z,9.58
2022-11-29T19:17:41.684Z,9.57
2022-11-29T19:19:47.960Z,9.59
2022-11-29T19:21:51.158Z,9.60
2022-11-29T19:23:55.870Z,9.63
2022-11-29T19:26:03.122Z,9.62
2022-11-29T19:28:12.473Z,9.58
2022-11-29T19:30:17.741Z,9.54
2022-11-29T19:32:20.993Z,9.50
2022-11-29T19:34:24.079Z,9.50
2022-11-29T19:36:29.545Z,9.47
2022-11-29T19:38:32.678Z,9.48
2022-11-29T19:40:35.718Z,9.48
2022-11-29T19:42:38.966Z,9.45
2022-11-29T19:45:14.763Z,9.42
2022-11-29T19:47:05.282Z,9.40
2022-11-29T19:49:09.408Z,9.42
2022-11-29T19:51:13.735Z,9.40
2022-11-29T19:53:18.385Z,9.40
2022-11-29T19:55:21.561Z,9.42
2022-11-29T19:57:24.781Z,9.40
2022-11-29T19:59:27.837Z,9.41
2022-11-29T20:01:40.385Z,9.40
2022-11-29T20:03:45.156Z,9.41
2022-11-29T20:05:55.447Z,9.41
2022-11-29T20:07:58.449Z,9.41
2022-11-29T20:10:03.039Z,9.40
2022-11-29T20:12:06.520Z,9.40
2022-11-29T20:14:11.696Z,9.37
2022-11-29T20:16:17.106Z,9.37
2022-11-29T20:18:20.208Z,9.35
2022-11-29T20:20:24.118Z,9.34
2022-11-29T20:22:27.261Z,9.31
2022-11-29T20:24:34.831Z,9.32
2022-11-29T20:26:44.855Z,9.31
2022-11-29T20:28:48.426Z,9.31
2022-11-29T20:30:51.511Z,9.32
2022-11-29T20:32:54.838Z,9.30
2022-11-29T20:34:59.514Z,9.31
2022-11-29T20:37:22.092Z,9.28
2022-11-29T20:39:33.377Z,9.28
2022-11-29T20:41:42.260Z,9.26
2022-11-29T20:43:51.150Z,9.26
2022-11-29T20:45:54.512Z,9.25
2022-11-29T20:48:01.919Z,9.25
2022-11-29T20:50:05.691Z,9.26
2022-11-29T20:52:12.322Z,9.27
2022-11-29T20:54:16.409Z,9.26
2022-11-29T20:56:19.408Z,9.26
2022-11-29T20:58:22.503Z,9.23
2022-11-29T21:00:27.174Z,9.23
2022-11-29T21:02:30.275Z,9.24
2022-11-29T21:04:33.283Z,9.22
2022-11-29T21:06:38.343Z,9.23
2022-11-29T21:08:41.487Z,9.23
2022-11-29T21:10:45.489Z,9.20
2022-11-29T21:12:49.498Z,9.19
2022-11-29T21:14:53.149Z,9.17
2022-11-29T21:16:58.413Z,9.16
2022-11-29T21:19:03.191Z,9.15
2022-11-29T21:21:18.962Z,9.15
2022-11-29T21:23:27.676Z,9.15
2022-11-29T21:25:42.661Z,9.15
2022-11-29T21:27:46.322Z,9.14
2022-11-29T21:29:50.182Z,9.14
2022-11-29T21:31:55.431Z,9.13
2022-11-29T21:34:00.442Z,9.12
2022-11-29T21:36:05.603Z,9.09
2022-11-29T21:38:12.805Z,9.09
2022-11-29T21:40:16.191Z,9.08
2022-11-29T21:42:19.183Z,9.07
2022-11-29T21:44:22.502Z,9.05
2022-11-29T21:46:25.719Z,9.02
2022-11-29T21:48:37.985Z,9.01
2022-11-29T21:50:42.644Z,9.01
2022-11-29T21:52:45.688Z,9.02
2022-11-29T21:54:49.065Z,9.00
2022-11-29T21:56:52.441Z,8.99
2022-11-29T21:58:55.599Z,8.99
2022-11-29T22:01:07.020Z,8.94
2022-11-29T22:03:10.326Z,8.87
2022-11-29T22:05:13.734Z,8.75
2022-11-29T22:07:18.092Z,8.59
2022-11-29T22:09:22.123Z,8.52
2022-11-29T22:11:31.845Z,8.48
2022-11-29T22:13:34.954Z,8.43
2022-11-29T22:15:37.967Z,8.38
2022-11-29T22:17:41.061Z,8.38
2022-11-29T22:19:44.126Z,8.41
2022-11-29T22:21:49.117Z,8.39
2022-11-29T22:23:54.543Z,8.37
2022-11-29T22:26:03.004Z,8.38
2022-11-29T22:28:06.596Z,8.40
2022-11-29T22:30:10.382Z,8.44
2022-11-29T22:32:13.394Z,8.45
2022-11-29T22:34:16.974Z,8.48
2022-11-29T22:36:20.148Z,8.50
2022-11-29T22:38:23.139Z,8.53
2022-11-29T22:40:27.523Z,8.57
2022-11-29T22:42:30.543Z,8.60
2022-11-29T22:44:33.640Z,8.62
2022-11-29T22:46:36.915Z,8.65
2022-11-29T22:48:40.530Z,8.69
2022-11-29T22:50:43.683Z,8.70
2022-11-29T22:52:46.708Z,8.72
2022-11-29T22:54:49.902Z,8.74
2022-11-29T22:56:54.439Z,8.76
2022-11-29T22:58:57.565Z,8.77
2022-11-29T23:01:04.537Z,8.79
2022-11-29T23:03:07.674Z,8.80
2022-11-29T23:05:10.986Z,8.82
2022-11-29T23:07:14.035Z,8.82
2022-11-29T23:09:21.151Z,8.79
2022-11-29T23:11:25.898Z,8.78
2022-11-29T23:13:30.792Z,8.77
2022-11-29T23:15:33.810Z,8.77
2022-11-29T23:17:36.784Z,8.77
2022-11-29T23:19:39.744Z,8.79
2022-11-29T23:21:45.428Z,8.80
2022-11-29T23:23:54.540Z,8.80
2022-11-29T23:25:59.425Z,8.79
2022-11-29T23:28:02.422Z,8.82
2022-11-29T23:30:08.534Z,8.83
2022-11-29T23:32:11.477Z,8.84
2022-11-29T23:34:14.834Z,8.85
2022-11-29T23:36:17.934Z,8.86
2022-11-29T23:38:20.987Z,8.86
2022-11-29T23:40:23.919Z,8.85
2022-11-29T23:42:26.939Z,8.87
2022-11-29T23:44:29.965Z,8.90
2022-11-29T23:46:35.512Z,8.91
2022-11-29T23:48:38.513Z,8.91
2022-11-29T23:50:42.470Z,8.88
2022-11-29T23:52:45.462Z,8.88
2022-11-29T23:54:48.842Z,8.89
2022-11-29T23:56:51.980Z,8.87
2022-11-29T23:58:54.981Z,8.88
